createdAt,value
2023-05-14T00:16:57.029Z,10.25
2023-05-14T00:19:23.863Z,19.85
2023-05-14T00:21:50.748Z,9.48
2023-05-14T00:24:17.631Z,10.05
2023-05-14T00:26:44.651Z,11.63
2023-05-14T00:29:11.512Z,14.50
2023-05-14T00:31:38.379Z,9.32
2023-05-14T00:34:05.354Z,10.60
2023-05-14T00:36:32.186Z,12.00
2023-05-14T00:38:59.011Z,10.88
2023-05-14T00:41:25.989Z,9.45
2023-05-14T00:43:52.962Z,16.75
2023-05-14T00:46:20.427Z,8.77
2023-05-14T00:48:47.311Z,11.77
2023-05-14T00:51:14.211Z,10.88
2023-05-14T00:53:42.052Z,9.75
2023-05-14T00:56:09.481Z,12.68
2023-05-14T00:58:36.420Z,10.07
2023-05-14T01:01:03.442Z,12.48
2023-05-14T01:03:39.767Z,11.18
2023-05-14T01:06:14.078Z,16.33
2023-05-14T01:09:01.155Z,12.70
2023-05-14T01:11:49.792Z,8.57
2023-05-14T01:14:16.660Z,12.32
2023-05-14T01:16:45.726Z,10.43
2023-05-14T01:19:26.948Z,9.13
2023-05-14T01:21:53.972Z,14.98
2023-05-14T01:24:20.793Z,12.77
2023-05-14T01:26:47.740Z,10.48
2023-05-14T01:29:22.515Z,15.60
2023-05-14T01:31:51.443Z,7.38
2023-05-14T01:34:23.141Z,19.02
2023-05-14T01:36:52.403Z,12.07
2023-05-14T01:39:20.100Z,12.05
2023-05-14T01:41:47.457Z,13.50
2023-05-14T01:44:14.778Z,18.23
2023-05-14T01:46:41.649Z,15.07
2023-05-14T01:49:08.569Z,10.13
2023-05-14T01:51:35.737Z,13.55
2023-05-14T01:54:02.547Z,12.50
2023-05-14T01:56:29.542Z,9.48
2023-05-14T01:58:56.877Z,15.90
2023-05-14T02:01:23.822Z,10.88
2023-05-14T02:03:51.353Z,11.57
2023-05-14T02:06:18.167Z,11.93
2023-05-14T02:08:45.310Z,13.30
2023-05-14T02:11:12.134Z,14.05
2023-05-14T02:13:38.895Z,12.80
2023-05-14T02:16:06.205Z,13.18
2023-05-14T02:18:33.007Z,19.73
2023-05-14T02:20:59.924Z,14.10
2023-05-14T02:23:34.466Z,16.10
2023-05-14T02:26:09.708Z,10.55
2023-05-14T02:28:36.621Z,12.50
2023-05-14T02:31:03.580Z,14.90
2023-05-14T02:33:30.570Z,15.45
2023-05-14T02:35:57.528Z,16.63
2023-05-14T02:38:24.376Z,15.02
2023-05-14T02:40:51.254Z,13.05
2023-05-14T02:43:18.069Z,17.98
2023-05-14T02:45:44.881Z,15.60
2023-05-14T02:48:11.769Z,14.68
2023-05-14T02:50:38.689Z,12.65
2023-05-14T02:53:05.677Z,12.10
2023-05-14T02:55:32.524Z,14.10
2023-05-14T02:57:59.401Z,13.77
2023-05-14T03:00:26.249Z,13.68
2023-05-14T03:02:53.612Z,13.13
2023-05-14T03:05:21.163Z,12.10
2023-05-14T03:07:48.060Z,13.35
2023-05-14T03:10:14.954Z,13.18
2023-05-14T03:12:41.819Z,14.10
2023-05-14T03:15:09.530Z,20.52
2023-05-14T03:17:36.518Z,16.65
2023-05-14T03:20:03.974Z,16.88
2023-05-14T03:22:30.857Z,15.57
2023-05-14T03:24:57.724Z,12.48
2023-05-14T03:27:24.538Z,13.77
2023-05-14T03:29:51.344Z,12.35
2023-05-14T03:32:19.072Z,16.55
2023-05-14T03:34:45.989Z,12.60
2023-05-14T03:37:12.895Z,18.25
2023-05-14T03:39:39.776Z,14.25
2023-05-14T03:42:06.697Z,14.20
2023-05-14T03:44:33.503Z,15.85
2023-05-14T03:47:00.517Z,15.82
2023-05-14T03:49:27.326Z,22.08
2023-05-14T03:51:54.260Z,17.08
2023-05-14T03:54:21.089Z,19.40
2023-05-14T03:56:47.891Z,11.82
2023-05-14T03:59:14.702Z,18.40
2023-05-14T04:01:41.564Z,19.45
2023-05-14T04:04:08.456Z,18.00
2023-05-14T04:06:35.430Z,14.43
2023-05-14T04:09:03.435Z,13.13
2023-05-14T04:11:30.313Z,11.63
2023-05-14T04:13:57.119Z,11.88
2023-05-14T04:16:24.159Z,17.25
2023-05-14T04:18:51.273Z,18.05
2023-05-14T04:21:18.241Z,18.45
2023-05-14T04:23:45.039Z,15.82
2023-05-14T04:26:11.925Z,15.25
2023-05-14T04:28:38.770Z,14.50
2023-05-14T04:31:05.853Z,20.48
2023-05-14T04:33:32.752Z,15.23
2023-05-14T04:35:59.574Z,20.60
2023-05-14T04:38:26.722Z,22.20
2023-05-14T04:40:53.557Z,16.13
2023-05-14T04:43:20.563Z,13.90
2023-05-14T04:45:47.418Z,13.00
2023-05-14T04:48:14.329Z,11.30
2023-05-14T04:50:41.166Z,12.60
2023-05-14T04:53:07.967Z,12.90
2023-05-14T04:55:34.830Z,13.82
2023-05-14T04:58:01.674Z,10.70
2023-05-14T05:00:29.341Z,14.90
2023-05-14T05:02:56.259Z,13.98
2023-05-14T05:05:23.661Z,12.95
2023-05-14T05:07:50.493Z,11.93
2023-05-14T05:10:17.301Z,15.27
2023-05-14T05:12:44.192Z,15.07
2023-05-14T05:15:11.216Z,30.77
2023-05-14T05:17:38.188Z,16.27
2023-05-14T05:20:08.061Z,16.65
2023-05-14T05:22:34.956Z,10.82
2023-05-14T05:25:01.915Z,13.55
2023-05-14T05:27:28.723Z,13.77
2023-05-14T05:29:55.880Z,13.77
2023-05-14T05:32:23.182Z,12.48
2023-05-14T05:34:51.952Z,18.38
2023-05-14T05:37:18.835Z,15.00
2023-05-14T05:39:46.297Z,11.52
2023-05-14T05:42:13.108Z,13.90
2023-05-14T05:44:39.950Z,11.75
2023-05-14T05:47:06.864Z,11.68
2023-05-14T05:49:33.787Z,12.07
2023-05-14T05:52:00.736Z,11.50
2023-05-14T05:54:27.561Z,12.27
2023-05-14T05:56:54.413Z,17.17
2023-05-14T05:59:21.647Z,17.83
2023-05-14T06:01:50.200Z,11.65
2023-05-14T06:04:17.230Z,15.32
2023-05-14T06:06:44.078Z,14.10
2023-05-14T06:09:10.978Z,16.65
2023-05-14T06:11:37.811Z,11.35
2023-05-14T06:14:04.736Z,12.85
2023-05-14T06:16:31.657Z,13.10
2023-05-14T06:18:58.798Z,13.18
2023-05-14T06:21:25.746Z,11.23
2023-05-14T06:23:52.540Z,14.95
2023-05-14T06:26:19.557Z,11.23
2023-05-14T06:28:46.365Z,14.15
2023-05-14T06:31:13.731Z,10.75
2023-05-14T06:33:40.688Z,10.82
2023-05-14T06:36:10.989Z,12.38
2023-05-14T06:38:38.127Z,13.65
2023-05-14T06:41:04.963Z,15.52
2023-05-14T06:43:31.852Z,12.73
2023-05-14T06:45:58.676Z,10.07
2023-05-14T06:48:27.891Z,10.07
2023-05-14T06:50:55.166Z,8.07
2023-05-14T06:53:22.004Z,8.60
2023-05-14T06:55:48.901Z,9.48
2023-05-14T06:58:15.790Z,12.68
2023-05-14T07:00:42.914Z,9.85
2023-05-14T07:03:09.992Z,8.50
2023-05-14T07:05:36.954Z,9.65
2023-05-14T07:08:03.887Z,6.95
2023-05-14T07:10:30.983Z,9.38
2023-05-14T07:12:58.223Z,14.88
2023-05-14T07:15:25.112Z,9.13
2023-05-14T07:17:52.003Z,11.23
2023-05-14T07:20:18.913Z,9.45
2023-05-14T07:22:45.797Z,9.43
2023-05-14T07:25:12.740Z,4.97
2023-05-14T07:27:39.596Z,6.63
2023-05-14T07:30:07.563Z,7.18
2023-05-14T07:32:34.443Z,8.63
2023-05-14T07:35:01.627Z,11.88
2023-05-14T07:37:28.669Z,7.00
2023-05-14T07:39:56.141Z,4.40
2023-05-14T07:42:35.193Z,6.43
2023-05-14T07:45:03.976Z,5.55
2023-05-14T07:47:31.084Z,6.28
2023-05-14T07:49:58.248Z,5.35
2023-05-14T07:52:25.259Z,4.22
2023-05-14T07:54:52.363Z,5.22
2023-05-14T07:57:20.004Z,13.32
2023-05-14T07:59:48.476Z,6.72
2023-05-14T08:02:16.929Z,5.88
2023-05-14T08:04:44.265Z,6.38
2023-05-14T08:07:11.639Z,8.38
2023-05-14T08:09:38.612Z,7.15
2023-05-14T08:12:06.116Z,5.20
2023-05-14T08:14:33.234Z,5.35
2023-05-14T08:17:00.152Z,5.22
2023-05-14T08:19:27.918Z,5.05
2023-05-14T08:21:54.825Z,5.65
2023-05-14T08:24:21.795Z,8.15
2023-05-14T08:26:48.715Z,8.45
2023-05-14T08:29:16.611Z,13.00
2023-05-14T08:31:43.880Z,6.78
2023-05-14T08:34:10.799Z,8.27
2023-05-14T08:36:38.959Z,6.20
2023-05-14T08:39:07.757Z,5.15
2023-05-14T08:41:35.553Z,5.20
2023-05-14T08:44:13.770Z,7.38
2023-05-14T08:46:41.871Z,5.72
2023-05-14T08:49:14.081Z,4.45
2023-05-14T08:51:41.543Z,7.07
2023-05-14T08:54:08.578Z,8.05
2023-05-14T08:56:36.937Z,6.13
2023-05-14T08:59:03.828Z,4.20
2023-05-14T09:01:30.959Z,4.53
2023-05-14T09:03:58.739Z,9.55
2023-05-14T09:06:26.524Z,5.85
2023-05-14T09:08:54.252Z,5.43
2023-05-14T09:11:21.608Z,5.55
2023-05-14T09:13:48.454Z,7.60
2023-05-14T09:16:17.954Z,8.98
2023-05-14T09:18:45.781Z,5.82
2023-05-14T09:21:16.542Z,5.13
2023-05-14T09:23:44.593Z,8.57
2023-05-14T09:26:18.750Z,3.88
2023-05-14T09:28:46.028Z,5.88
2023-05-14T09:31:13.068Z,4.63
2023-05-14T09:33:40.021Z,6.85
2023-05-14T09:36:07.273Z,3.72
2023-05-14T09:38:34.355Z,10.25
2023-05-14T09:41:01.266Z,4.43
2023-05-14T09:43:28.340Z,5.38
2023-05-14T09:45:55.288Z,4.85
2023-05-14T09:48:22.954Z,7.90
2023-05-14T09:50:49.874Z,4.63
2023-05-14T09:53:17.780Z,5.00
2023-05-14T09:55:45.522Z,5.40
2023-05-14T09:58:14.505Z,9.25
2023-05-14T10:00:45.604Z,3.75
2023-05-14T10:03:17.210Z,3.72
2023-05-14T10:05:48.015Z,3.33
2023-05-14T10:08:26.815Z,4.90
2023-05-14T10:10:59.359Z,6.22
2023-05-14T10:13:31.921Z,3.65
2023-05-14T10:16:20.538Z,4.75
2023-05-14T10:18:55.792Z,5.05
2023-05-14T10:21:25.536Z,5.07
2023-05-14T10:23:52.733Z,7.05
2023-05-14T10:26:21.206Z,7.65
2023-05-14T10:28:49.538Z,7.22
2023-05-14T10:31:17.338Z,7.00
2023-05-14T10:33:50.401Z,7.50
2023-05-14T10:36:18.673Z,4.93
2023-05-14T10:38:47.101Z,5.43
2023-05-14T10:41:18.030Z,5.20
2023-05-14T10:43:45.029Z,4.95
2023-05-14T10:46:14.053Z,5.20
2023-05-14T10:48:45.100Z,4.10
2023-05-14T10:51:12.582Z,8.55
2023-05-14T10:53:42.408Z,5.43
2023-05-14T10:56:11.034Z,6.75
2023-05-14T10:58:43.061Z,6.80
2023-05-14T11:01:12.651Z,5.45
2023-05-14T11:03:45.425Z,5.10
2023-05-14T11:06:15.006Z,5.68
2023-05-14T11:08:42.734Z,5.30
2023-05-14T11:11:10.966Z,4.18
2023-05-14T11:13:38.481Z,5.38
2023-05-14T11:16:15.031Z,4.07
2023-05-14T11:19:00.517Z,5.47
2023-05-14T11:21:27.701Z,3.95
2023-05-14T11:23:55.776Z,4.40
2023-05-14T11:26:24.157Z,5.82
2023-05-14T11:28:51.246Z,3.92
2023-05-14T11:31:19.025Z,3.97
2023-05-14T11:33:46.029Z,6.53
2023-05-14T11:36:12.845Z,6.35
2023-05-14T11:38:51.256Z,4.38
2023-05-14T11:41:22.027Z,4.07
2023-05-14T11:43:49.095Z,4.95
2023-05-14T11:46:19.351Z,5.53
2023-05-14T11:48:46.277Z,3.53
2023-05-14T11:51:13.135Z,7.13
2023-05-14T11:53:40.041Z,3.60
2023-05-14T11:56:09.518Z,4.60
2023-05-14T11:58:36.845Z,4.82
2023-05-14T12:01:03.722Z,3.78
2023-05-14T12:03:31.154Z,2.80
2023-05-14T12:06:02.525Z,3.65
2023-05-14T12:08:31.362Z,4.18
2023-05-14T12:11:00.135Z,4.03
2023-05-14T12:13:32.527Z,3.00
2023-05-14T12:16:02.482Z,3.67
2023-05-14T12:18:33.490Z,8.90
2023-05-14T12:21:05.399Z,3.65
2023-05-14T12:23:33.066Z,2.53
2023-05-14T12:26:06.292Z,3.95
2023-05-14T12:31:04.726Z,5.05
2023-05-14T12:33:31.612Z,2.30
2023-05-14T12:36:10.083Z,3.38
2023-05-14T12:38:41.648Z,5.13
2023-05-14T12:41:08.528Z,3.60
2023-05-14T12:43:35.372Z,2.53
2023-05-14T12:46:02.604Z,2.70
2023-05-14T12:48:30.010Z,2.28
2023-05-14T12:50:56.785Z,2.75
2023-05-14T12:53:23.747Z,3.20
2023-05-14T12:55:50.661Z,6.07
2023-05-14T12:58:17.488Z,5.85
2023-05-14T13:00:44.382Z,2.30
2023-05-14T13:03:11.383Z,3.58
2023-05-14T13:05:38.232Z,7.10
2023-05-14T13:08:05.143Z,3.50
2023-05-14T13:10:32.185Z,4.05
2023-05-14T13:12:59.455Z,3.13
2023-05-14T13:15:26.469Z,4.97
2023-05-14T13:17:53.364Z,7.25
2023-05-14T13:20:20.298Z,2.65
2023-05-14T13:22:47.508Z,2.15
2023-05-14T13:25:14.323Z,2.25
2023-05-14T13:27:41.137Z,4.13
2023-05-14T13:30:08.395Z,2.55
2023-05-14T13:32:35.516Z,6.28
2023-05-14T13:35:02.340Z,2.67
2023-05-14T13:37:29.119Z,4.68
2023-05-14T13:39:56.025Z,2.25
2023-05-14T13:42:23.663Z,4.63
2023-05-14T13:44:50.842Z,1.75
2023-05-14T13:47:17.810Z,9.82
2023-05-14T13:49:44.746Z,3.53
2023-05-14T13:52:11.543Z,3.92
2023-05-14T13:54:38.354Z,3.85
2023-05-14T13:57:05.568Z,2.25
2023-05-14T13:59:32.480Z,2.72
2023-05-14T14:01:59.466Z,7.13
2023-05-14T14:04:29.012Z,3.72
2023-05-14T14:06:56.298Z,6.15
2023-05-14T14:09:23.240Z,5.57
2023-05-14T14:11:50.465Z,2.75
2023-05-14T14:14:18.236Z,3.95
2023-05-14T14:16:45.262Z,2.28
2023-05-14T14:19:12.187Z,3.00
2023-05-14T14:21:42.673Z,3.22
2023-05-14T14:24:09.555Z,1.98
2023-05-14T14:26:36.505Z,2.20
2023-05-14T14:29:03.464Z,2.60
2023-05-14T14:31:30.845Z,1.98
2023-05-14T14:33:57.749Z,1.95
2023-05-14T14:36:24.527Z,2.67
2023-05-14T14:38:51.506Z,4.40
2023-05-14T14:41:18.369Z,5.35
2023-05-14T14:43:45.324Z,3.72
2023-05-14T14:46:12.138Z,3.78
2023-05-14T14:48:39.046Z,3.10
2023-05-14T14:51:07.395Z,3.97
2023-05-14T14:53:35.650Z,2.38
2023-05-14T14:56:02.619Z,3.42
2023-05-14T14:58:32.145Z,3.33
2023-05-14T15:00:59.166Z,4.88
2023-05-14T15:03:26.655Z,3.22
2023-05-14T15:05:54.026Z,11.77
2023-05-14T15:08:27.422Z,3.58
2023-05-14T15:10:55.898Z,3.37
2023-05-14T15:13:22.875Z,5.53
2023-05-14T15:15:53.263Z,2.00
2023-05-14T15:18:20.187Z,4.65
2023-05-14T15:20:47.261Z,2.63
2023-05-14T15:23:14.403Z,3.88
2023-05-14T15:25:41.206Z,5.00
2023-05-14T15:28:08.134Z,4.53
2023-05-14T15:30:35.129Z,2.38
2023-05-14T15:33:02.070Z,4.03
2023-05-14T15:35:28.983Z,2.55
2023-05-14T15:37:57.294Z,4.43
2023-05-14T15:40:24.640Z,3.30
2023-05-14T15:42:51.736Z,2.80
2023-05-14T15:45:18.751Z,4.18
2023-05-14T15:47:45.631Z,2.60
2023-05-14T15:50:12.500Z,4.40
2023-05-14T15:52:41.496Z,1.85
2023-05-14T15:55:09.043Z,3.30
2023-05-14T15:57:35.957Z,3.42
2023-05-14T16:00:12.529Z,6.20
2023-05-14T16:02:42.642Z,4.88
2023-05-14T16:05:09.738Z,2.83
2023-05-14T16:07:37.118Z,2.25
2023-05-14T16:10:04.647Z,3.22
2023-05-14T16:12:31.790Z,3.88
2023-05-14T16:14:59.915Z,5.90
2023-05-14T16:17:27.933Z,1.58
2023-05-14T16:19:56.340Z,4.25
2023-05-14T16:22:23.572Z,4.75
2023-05-14T16:24:50.513Z,2.58
2023-05-14T16:27:19.131Z,4.97
2023-05-14T16:29:46.027Z,6.05
2023-05-14T16:32:13.006Z,2.67
2023-05-14T16:34:40.573Z,6.00
2023-05-14T16:37:08.089Z,1.95
2023-05-14T16:39:35.076Z,2.15
2023-05-14T16:42:01.898Z,1.38
2023-05-14T16:44:28.729Z,2.95
2023-05-14T16:46:56.399Z,3.00
2023-05-14T16:49:23.414Z,2.70
2023-05-14T16:52:00.861Z,2.47
2023-05-14T16:54:27.818Z,3.47
2023-05-14T16:56:54.711Z,2.00
2023-05-14T16:59:25.138Z,2.55
2023-05-14T17:01:52.116Z,4.72
2023-05-14T17:04:21.197Z,2.38
2023-05-14T17:06:48.177Z,2.47
2023-05-14T17:09:15.231Z,2.78
2023-05-14T17:11:42.025Z,4.75
2023-05-14T17:14:08.939Z,3.30
2023-05-14T17:16:35.841Z,3.92
2023-05-14T17:19:02.961Z,5.70
2023-05-14T17:21:31.383Z,3.28
2023-05-14T17:23:58.570Z,2.70
2023-05-14T17:26:26.331Z,2.83
2023-05-14T17:28:53.257Z,4.78
2023-05-14T17:31:21.953Z,2.15
2023-05-14T17:33:49.251Z,5.85
2023-05-14T17:36:16.100Z,2.17
2023-05-14T17:38:43.114Z,3.35
2023-05-14T17:41:09.895Z,2.88
2023-05-14T17:43:36.745Z,3.75
2023-05-14T17:46:04.167Z,2.55
2023-05-14T17:48:31.037Z,3.10
2023-05-14T17:50:57.865Z,2.17
2023-05-14T17:53:24.762Z,2.63
2023-05-14T17:55:51.661Z,3.17
2023-05-14T17:58:18.538Z,3.55
2023-05-14T18:00:45.525Z,11.95
2023-05-14T18:03:14.273Z,2.50
2023-05-14T18:05:41.432Z,2.35
2023-05-14T18:08:09.531Z,3.20
2023-05-14T18:10:36.393Z,2.33
2023-05-14T18:13:03.425Z,2.50
2023-05-14T18:15:31.531Z,2.17
2023-05-14T18:17:58.985Z,3.47
2023-05-14T18:20:25.944Z,4.32
2023-05-14T18:22:52.797Z,3.78
2023-05-14T18:25:19.710Z,2.35
2023-05-14T18:27:46.992Z,3.03
2023-05-14T18:30:15.200Z,4.25
2023-05-14T18:32:44.160Z,2.83
2023-05-14T18:35:12.491Z,3.10
2023-05-14T18:37:39.578Z,4.32
2023-05-14T18:40:07.103Z,4.15
2023-05-14T18:42:34.600Z,5.00
2023-05-14T18:45:01.623Z,4.70
2023-05-14T18:47:28.769Z,9.32
2023-05-14T18:49:58.096Z,16.08
2023-05-14T18:52:26.275Z,9.90
2023-05-14T18:54:54.627Z,9.77
2023-05-14T18:57:22.026Z,11.50
2023-05-14T18:59:48.904Z,11.02
2023-05-14T19:02:16.273Z,13.73
2023-05-14T19:04:52.262Z,14.35
2023-05-14T19:07:21.124Z,11.73
2023-05-14T19:09:48.583Z,15.50
2023-05-14T19:12:15.516Z,12.38
2023-05-14T19:14:42.382Z,13.32
2023-05-14T19:17:09.268Z,19.30
2023-05-14T19:19:39.532Z,14.32
2023-05-14T19:22:06.884Z,13.50
2023-05-14T19:24:33.959Z,21.85
2023-05-14T19:27:00.990Z,15.45
2023-05-14T19:29:27.811Z,15.25
2023-05-14T19:31:54.694Z,15.30
2023-05-14T19:34:21.574Z,17.95
2023-05-14T19:36:48.811Z,17.75
2023-05-14T19:39:15.801Z,12.35
2023-05-14T19:41:42.697Z,20.88
2023-05-14T19:44:09.523Z,16.70
2023-05-14T19:46:36.429Z,17.73
2023-05-14T19:49:03.437Z,13.85
2023-05-14T19:51:30.563Z,15.10
2023-05-14T19:53:57.472Z,14.48
2023-05-14T19:56:25.203Z,18.75
2023-05-14T19:58:54.179Z,17.67
2023-05-14T20:01:21.107Z,17.60
2023-05-14T20:03:48.364Z,19.58
2023-05-14T20:06:15.589Z,17.33
2023-05-14T20:08:42.473Z,25.75
2023-05-14T20:11:09.282Z,19.05
2023-05-14T20:13:36.781Z,18.05
2023-05-14T20:16:03.770Z,20.95
2023-05-14T20:18:31.194Z,20.48
2023-05-14T20:20:58.419Z,21.48
2023-05-14T20:23:25.338Z,22.45
2023-05-14T20:25:52.253Z,26.55
2023-05-14T20:28:19.098Z,22.42
2023-05-14T20:30:46.047Z,19.70
2023-05-14T20:33:13.790Z,21.38
2023-05-14T20:35:43.853Z,26.27
2023-05-14T20:38:12.639Z,21.05
2023-05-14T20:40:40.110Z,23.45
2023-05-14T20:43:06.980Z,19.92
2023-05-14T20:45:33.856Z,20.75
2023-05-14T20:48:00.974Z,21.30
2023-05-14T20:50:28.095Z,23.05
2023-05-14T20:52:55.682Z,24.88
2023-05-14T20:55:23.026Z,29.67
2023-05-14T20:57:50.581Z,23.95
2023-05-14T21:00:17.874Z,24.92
2023-05-14T21:02:44.984Z,24.80
2023-05-14T21:05:13.764Z,27.95
2023-05-14T21:07:40.669Z,29.70
2023-05-14T21:10:09.387Z,30.02
2023-05-14T21:12:36.266Z,26.80
2023-05-14T21:15:03.226Z,34.30
2023-05-14T21:17:30.381Z,34.50
2023-05-14T21:19:57.377Z,31.13
2023-05-14T21:22:24.736Z,29.13
2023-05-14T21:24:51.603Z,26.50
2023-05-14T21:27:18.701Z,35.42
2023-05-14T21:29:46.459Z,25.15
2023-05-14T21:32:13.530Z,34.38
2023-05-14T21:34:40.456Z,27.95
2023-05-14T21:37:07.350Z,27.83
2023-05-14T21:39:34.227Z,30.52
2023-05-14T21:42:01.077Z,31.17
2023-05-14T21:44:27.915Z,30.13
2023-05-14T21:46:54.938Z,27.30
2023-05-14T21:49:21.724Z,31.85
2023-05-14T21:51:53.049Z,31.20
2023-05-14T21:54:23.452Z,27.95
2023-05-14T21:56:50.437Z,33.28
2023-05-14T21:59:17.424Z,29.05
2023-05-14T22:04:14.264Z,31.45
2023-05-14T22:06:41.939Z,35.22
2023-05-14T22:09:11.411Z,30.15
2023-05-14T22:11:38.219Z,30.48
2023-05-14T22:14:05.107Z,37.58
2023-05-14T22:16:32.804Z,29.95
2023-05-14T22:18:59.802Z,32.08
2023-05-14T22:21:26.678Z,32.75
2023-05-14T22:23:53.821Z,29.13
2023-05-14T22:26:21.724Z,34.08
2023-05-14T22:28:49.626Z,39.35
2023-05-14T22:31:16.524Z,36.17
2023-05-14T22:33:43.592Z,33.58
2023-05-14T22:36:10.831Z,32.90
2023-05-14T22:38:38.285Z,34.42
2023-05-14T22:41:05.279Z,31.23
2023-05-14T22:43:32.062Z,33.13
2023-05-14T22:45:59.007Z,34.90
2023-05-14T22:48:25.855Z,34.75
2023-05-14T22:50:53.356Z,34.83
2023-05-14T22:53:20.280Z,37.00
2023-05-14T22:55:47.071Z,39.08
2023-05-14T22:58:13.847Z,36.53
2023-05-14T23:00:40.709Z,40.42
2023-05-14T23:03:07.736Z,41.20
2023-05-14T23:05:34.903Z,31.85
2023-05-14T23:08:01.823Z,35.75
2023-05-14T23:10:28.902Z,37.15
2023-05-14T23:12:55.819Z,38.03
2023-05-14T23:15:22.795Z,38.28
2023-05-14T23:17:49.895Z,36.65
2023-05-14T23:20:16.821Z,39.08
2023-05-14T23:22:43.661Z,36.60
2023-05-14T23:25:10.552Z,37.65
2023-05-14T23:27:37.404Z,42.50
2023-05-14T23:30:04.864Z,35.45
2023-05-14T23:32:31.732Z,37.33
2023-05-14T23:34:58.543Z,36.97
2023-05-14T23:37:25.643Z,35.33
2023-05-14T23:39:52.768Z,34.25
2023-05-14T23:42:20.280Z,37.33
2023-05-14T23:44:47.188Z,40.85
2023-05-14T23:47:14.037Z,39.60
2023-05-14T23:49:40.890Z,41.03
2023-05-14T23:52:08.199Z,40.95
2023-05-14T23:54:35.048Z,50.65
2023-05-14T23:57:03.084Z,41.33
2023-05-14T23:59:30.187Z,42.10
